Terminal Aerodrome Forecast
Issued by NWS

Home | Current Version | Previous Version | Graphics & Text | Print | Product List | Glossary On
Versions: 1 2 3 4 5 6 7 8 9 10
000
FTUS43 KICT 240535
TAFRSL
TAF
KRSL 240535Z 2406/2506 33009KT P6SM OVC030
     FM240900 33008KT P6SM SCT020 BKN035
     FM241500 32012KT P6SM SCT035
     FM242200 26008KT P6SM SKC
     FM250300 19008KT P6SM SKC=

USA.gov is the U.S. government's official web portal to all federal, state and local government web resources and services.